sensor_id;sensor_type;location;lat;lon;timestamp;P1;durP1;ratioP1;P2;durP2;ratioP2
14348;SDS011;7258;50.376;8.742;2023-07-28T00:02:17;13.73;;;6.82;;
14348;SDS011;7258;50.376;8.742;2023-07-28T00:04:29;10.95;;;7.43;;
14348;SDS011;7258;50.376;8.742;2023-07-28T00:06:38;9.50;;;6.38;;
14348;SDS011;7258;50.376;8.742;2023-07-28T00:08:59;10.05;;;6.72;;
14348;SDS011;7258;50.376;8.742;2023-07-28T00:11:15;13.65;;;7.00;;
14348;SDS011;7258;50.376;8.742;2023-07-28T00:13:42;11.00;;;6.53;;
14348;SDS011;7258;50.376;8.742;2023-07-28T00:15:51;16.30;;;7.53;;
14348;SDS011;7258;50.376;8.742;2023-07-28T00:18:12;12.57;;;6.95;;
14348;SDS011;7258;50.376;8.742;2023-07-28T00:20:36;13.02;;;7.25;;
14348;SDS011;7258;50.376;8.742;2023-07-28T00:22:53;12.30;;;7.05;;
14348;SDS011;7258;50.376;8.742;2023-07-28T00:25:04;11.57;;;7.93;;
14348;SDS011;7258;50.376;8.742;2023-07-28T00:27:16;16.45;;;8.02;;
14348;SDS011;7258;50.376;8.742;2023-07-28T00:29:41;17.00;;;8.20;;
14348;SDS011;7258;50.376;8.742;2023-07-28T00:31:51;19.33;;;8.63;;
14348;SDS011;7258;50.376;8.742;2023-07-28T00:34:04;15.98;;;8.98;;
14348;SDS011;7258;50.376;8.742;2023-07-28T00:36:11;13.75;;;8.80;;
14348;SDS011;7258;50.376;8.742;2023-07-28T00:38:29;16.30;;;9.00;;
14348;SDS011;7258;50.376;8.742;2023-07-28T00:40:41;17.27;;;9.00;;
14348;SDS011;7258;50.376;8.742;2023-07-28T00:43:06;17.88;;;9.85;;
14348;SDS011;7258;50.376;8.742;2023-07-28T00:45:15;27.70;;;11.00;;
14348;SDS011;7258;50.376;8.742;2023-07-28T00:47:36;20.10;;;11.00;;
14348;SDS011;7258;50.376;8.742;2023-07-28T00:50:03;19.02;;;10.85;;
14348;SDS011;7258;50.376;8.742;2023-07-28T00:52:21;17.60;;;10.38;;
14348;SDS011;7258;50.376;8.742;2023-07-28T00:54:53;17.25;;;10.18;;
14348;SDS011;7258;50.376;8.742;2023-07-28T00:57:06;17.52;;;10.80;;
14348;SDS011;7258;50.376;8.742;2023-07-28T00:59:17;17.00;;;10.93;;
14348;SDS011;7258;50.376;8.742;2023-07-28T01:01:39;18.45;;;11.65;;
14348;SDS011;7258;50.376;8.742;2023-07-28T01:03:42;19.83;;;11.23;;
14348;SDS011;7258;50.376;8.742;2023-07-28T01:05:55;20.67;;;11.25;;
14348;SDS011;7258;50.376;8.742;2023-07-28T01:08:27;20.30;;;10.27;;
14348;SDS011;7258;50.376;8.742;2023-07-28T01:10:46;13.98;;;10.27;;
14348;SDS011;7258;50.376;8.742;2023-07-28T01:12:52;20.05;;;10.95;;
14348;SDS011;7258;50.376;8.742;2023-07-28T01:15:00;18.38;;;11.85;;
14348;SDS011;7258;50.376;8.742;2023-07-28T01:17:41;17.92;;;11.13;;
14348;SDS011;7258;50.376;8.742;2023-07-28T01:19:55;23.15;;;11.80;;
14348;SDS011;7258;50.376;8.742;2023-07-28T01:25:06;16.02;;;9.85;;
14348;SDS011;7258;50.376;8.742;2023-07-28T01:27:36;15.40;;;11.13;;
14348;SDS011;7258;50.376;8.742;2023-07-28T01:29:48;20.83;;;11.55;;
14348;SDS011;7258;50.376;8.742;2023-07-28T01:31:51;24.30;;;12.65;;
14348;SDS011;7258;50.376;8.742;2023-07-28T01:34:22;22.80;;;10.77;;
14348;SDS011;7258;50.376;8.742;2023-07-28T01:36:35;22.20;;;12.43;;
14348;SDS011;7258;50.376;8.742;2023-07-28T01:38:45;23.40;;;12.10;;
14348;SDS011;7258;50.376;8.742;2023-07-28T01:40:53;17.63;;;12.10;;
14348;SDS011;7258;50.376;8.742;2023-07-28T01:43:24;17.55;;;10.50;;
14348;SDS011;7258;50.376;8.742;2023-07-28T01:45:28;21.02;;;12.50;;
14348;SDS011;7258;50.376;8.742;2023-07-28T01:47:31;19.25;;;11.27;;
14348;SDS011;7258;50.376;8.742;2023-07-28T01:49:35;21.05;;;11.75;;
14348;SDS011;7258;50.376;8.742;2023-07-28T01:51:38;20.45;;;12.13;;
14348;SDS011;7258;50.376;8.742;2023-07-28T01:53:44;23.83;;;11.65;;
14348;SDS011;7258;50.376;8.742;2023-07-28T01:55:49;18.65;;;12.30;;
14348;SDS011;7258;50.376;8.742;2023-07-28T01:57:55;19.20;;;11.90;;
14348;SDS011;7258;50.376;8.742;2023-07-28T02:00:02;24.75;;;12.60;;
14348;SDS011;7258;50.376;8.742;2023-07-28T02:02:06;24.17;;;12.40;;
14348;SDS011;7258;50.376;8.742;2023-07-28T02:04:11;21.70;;;10.90;;
14348;SDS011;7258;50.376;8.742;2023-07-28T02:06:15;21.15;;;12.43;;
14348;SDS011;7258;50.376;8.742;2023-07-28T02:08:19;22.17;;;11.65;;
14348;SDS011;7258;50.376;8.742;2023-07-28T02:10:22;25.40;;;13.15;;
14348;SDS011;7258;50.376;8.742;2023-07-28T02:12:29;28.40;;;13.23;;
14348;SDS011;7258;50.376;8.742;2023-07-28T02:14:32;25.38;;;13.70;;
14348;SDS011;7258;50.376;8.742;2023-07-28T02:16:38;22.95;;;12.23;;
14348;SDS011;7258;50.376;8.742;2023-07-28T02:18:45;22.58;;;13.13;;
14348;SDS011;7258;50.376;8.742;2023-07-28T02:21:05;29.15;;;13.25;;
14348;SDS011;7258;50.376;8.742;2023-07-28T02:23:30;26.52;;;13.95;;
14348;SDS011;7258;50.376;8.742;2023-07-28T02:25:39;24.77;;;12.70;;
14348;SDS011;7258;50.376;8.742;2023-07-28T02:28:31;21.98;;;12.38;;
14348;SDS011;7258;50.376;8.742;2023-07-28T02:30:30;20.23;;;11.25;;
14348;SDS011;7258;50.376;8.742;2023-07-28T02:33:15;21.77;;;11.65;;
14348;SDS011;7258;50.376;8.742;2023-07-28T02:35:33;19.25;;;11.90;;
14348;SDS011;7258;50.376;8.742;2023-07-28T02:37:42;19.40;;;10.63;;
14348;SDS011;7258;50.376;8.742;2023-07-28T02:40:09;19.33;;;11.23;;
14348;SDS011;7258;50.376;8.742;2023-07-28T02:42:17;18.00;;;10.85;;
14348;SDS011;7258;50.376;8.742;2023-07-28T02:44:46;20.38;;;11.43;;
14348;SDS011;7258;50.376;8.742;2023-07-28T02:47:03;19.40;;;11.35;;
14348;SDS011;7258;50.376;8.742;2023-07-28T02:49:50;22.48;;;11.95;;
14348;SDS011;7258;50.376;8.742;2023-07-28T02:52:13;17.17;;;11.13;;
14348;SDS011;7258;50.376;8.742;2023-07-28T02:54:22;21.42;;;12.43;;
14348;SDS011;7258;50.376;8.742;2023-07-28T02:56:33;19.95;;;11.55;;
14348;SDS011;7258;50.376;8.742;2023-07-28T02:58:45;23.90;;;12.55;;
14348;SDS011;7258;50.376;8.742;2023-07-28T03:01:02;20.38;;;11.73;;
14348;SDS011;7258;50.376;8.742;2023-07-28T03:05:37;18.77;;;10.52;;
14348;SDS011;7258;50.376;8.742;2023-07-28T03:08:16;16.55;;;10.20;;
14348;SDS011;7258;50.376;8.742;2023-07-28T03:10:25;22.05;;;10.60;;
14348;SDS011;7258;50.376;8.742;2023-07-28T03:12:35;16.35;;;9.90;;
14348;SDS011;7258;50.376;8.742;2023-07-28T03:14:55;17.38;;;10.45;;
14348;SDS011;7258;50.376;8.742;2023-07-28T03:17:14;15.52;;;10.30;;
14348;SDS011;7258;50.376;8.742;2023-07-28T03:19:56;15.73;;;9.48;;
14348;SDS011;7258;50.376;8.742;2023-07-28T03:22:22;17.80;;;9.95;;
14348;SDS011;7258;50.376;8.742;2023-07-28T03:24:38;20.85;;;11.52;;
14348;SDS011;7258;50.376;8.742;2023-07-28T03:26:49;19.02;;;11.00;;
14348;SDS011;7258;50.376;8.742;2023-07-28T03:29:08;21.13;;;11.02;;
14348;SDS011;7258;50.376;8.742;2023-07-28T03:31:25;18.70;;;11.45;;
14348;SDS011;7258;50.376;8.742;2023-07-28T03:33:28;18.85;;;11.63;;
14348;SDS011;7258;50.376;8.742;2023-07-28T03:35:38;26.60;;;13.50;;
14348;SDS011;7258;50.376;8.742;2023-07-28T03:40:49;20.60;;;12.10;;
14348;SDS011;7258;50.376;8.742;2023-07-28T03:43:32;22.02;;;12.07;;
14348;SDS011;7258;50.376;8.742;2023-07-28T03:46:05;24.67;;;12.95;;
14348;SDS011;7258;50.376;8.742;2023-07-28T03:48:35;21.17;;;12.38;;
14348;SDS011;7258;50.376;8.742;2023-07-28T03:50:58;21.83;;;12.15;;
14348;SDS011;7258;50.376;8.742;2023-07-28T03:53:13;23.77;;;12.90;;
14348;SDS011;7258;50.376;8.742;2023-07-28T03:55:25;21.35;;;13.13;;
14348;SDS011;7258;50.376;8.742;2023-07-28T04:00:10;23.00;;;13.18;;
14348;SDS011;7258;50.376;8.742;2023-07-28T04:02:24;23.60;;;12.82;;
14348;SDS011;7258;50.376;8.742;2023-07-28T04:04:41;25.63;;;13.18;;
14348;SDS011;7258;50.376;8.742;2023-07-28T04:06:58;25.98;;;12.95;;
14348;SDS011;7258;50.376;8.742;2023-07-28T04:10:28;23.05;;;13.13;;
14348;SDS011;7258;50.376;8.742;2023-07-28T04:14:47;27.60;;;13.68;;
14348;SDS011;7258;50.376;8.742;2023-07-28T04:17:32;23.05;;;13.02;;
14348;SDS011;7258;50.376;8.742;2023-07-28T04:19:48;20.77;;;12.02;;
14348;SDS011;7258;50.376;8.742;2023-07-28T04:24:24;26.95;;;12.55;;
14348;SDS011;7258;50.376;8.742;2023-07-28T04:26:53;19.60;;;12.13;;
14348;SDS011;7258;50.376;8.742;2023-07-28T04:31:44;17.50;;;10.73;;
14348;SDS011;7258;50.376;8.742;2023-07-28T04:34:04;16.90;;;10.30;;
14348;SDS011;7258;50.376;8.742;2023-07-28T04:36:30;16.63;;;9.27;;
14348;SDS011;7258;50.376;8.742;2023-07-28T04:38:39;14.43;;;9.45;;
14348;SDS011;7258;50.376;8.742;2023-07-28T04:41:21;14.85;;;8.90;;
14348;SDS011;7258;50.376;8.742;2023-07-28T04:44:24;14.57;;;9.52;;
14348;SDS011;7258;50.376;8.742;2023-07-28T04:46:42;15.35;;;9.07;;
14348;SDS011;7258;50.376;8.742;2023-07-28T04:48:56;18.02;;;9.82;;
14348;SDS011;7258;50.376;8.742;2023-07-28T04:51:10;15.45;;;10.10;;
14348;SDS011;7258;50.376;8.742;2023-07-28T04:53:29;14.30;;;9.73;;
14348;SDS011;7258;50.376;8.742;2023-07-28T04:55:52;14.68;;;9.43;;
14348;SDS011;7258;50.376;8.742;2023-07-28T04:58:11;16.63;;;9.75;;
14348;SDS011;7258;50.376;8.742;2023-07-28T05:00:37;15.57;;;10.10;;
14348;SDS011;7258;50.376;8.742;2023-07-28T05:02:58;18.08;;;11.02;;
14348;SDS011;7258;50.376;8.742;2023-07-28T05:05:16;22.90;;;11.27;;
14348;SDS011;7258;50.376;8.742;2023-07-28T05:10:09;19.08;;;11.45;;
14348;SDS011;7258;50.376;8.742;2023-07-28T05:12:17;22.50;;;12.50;;
14348;SDS011;7258;50.376;8.742;2023-07-28T05:14:20;20.88;;;12.20;;
14348;SDS011;7258;50.376;8.742;2023-07-28T05:16:24;16.42;;;11.73;;
14348;SDS011;7258;50.376;8.742;2023-07-28T05:18:27;18.40;;;12.15;;
14348;SDS011;7258;50.376;8.742;2023-07-28T05:20:30;21.77;;;12.60;;
14348;SDS011;7258;50.376;8.742;2023-07-28T05:22:33;18.05;;;12.77;;
14348;SDS011;7258;50.376;8.742;2023-07-28T05:24:36;18.45;;;13.13;;
14348;SDS011;7258;50.376;8.742;2023-07-28T05:26:37;17.95;;;12.38;;
14348;SDS011;7258;50.376;8.742;2023-07-28T05:28:40;19.83;;;12.10;;
14348;SDS011;7258;50.376;8.742;2023-07-28T05:30:43;23.25;;;12.48;;
14348;SDS011;7258;50.376;8.742;2023-07-28T05:32:48;19.45;;;13.27;;
14348;SDS011;7258;50.376;8.742;2023-07-28T05:34:51;22.92;;;14.07;;
14348;SDS011;7258;50.376;8.742;2023-07-28T05:36:53;21.58;;;12.75;;
14348;SDS011;7258;50.376;8.742;2023-07-28T05:38:57;20.05;;;13.02;;
14348;SDS011;7258;50.376;8.742;2023-07-28T05:41:00;20.27;;;11.98;;
14348;SDS011;7258;50.376;8.742;2023-07-28T05:43:05;17.83;;;11.85;;
14348;SDS011;7258;50.376;8.742;2023-07-28T05:45:08;17.15;;;11.07;;
14348;SDS011;7258;50.376;8.742;2023-07-28T05:47:11;13.95;;;10.45;;
14348;SDS011;7258;50.376;8.742;2023-07-28T05:49:16;17.95;;;10.30;;
14348;SDS011;7258;50.376;8.742;2023-07-28T05:51:19;12.13;;;9.40;;
14348;SDS011;7258;50.376;8.742;2023-07-28T05:53:22;13.93;;;9.05;;
14348;SDS011;7258;50.376;8.742;2023-07-28T05:55:25;11.77;;;9.50;;
14348;SDS011;7258;50.376;8.742;2023-07-28T05:57:31;14.43;;;9.48;;
14348;SDS011;7258;50.376;8.742;2023-07-28T05:59:33;10.00;;;8.07;;
14348;SDS011;7258;50.376;8.742;2023-07-28T06:01:36;8.68;;;7.65;;
14348;SDS011;7258;50.376;8.742;2023-07-28T06:03:41;11.02;;;8.40;;
14348;SDS011;7258;50.376;8.742;2023-07-28T06:05:47;11.95;;;9.02;;
14348;SDS011;7258;50.376;8.742;2023-07-28T06:07:50;9.35;;;8.38;;
14348;SDS011;7258;50.376;8.742;2023-07-28T06:09:53;9.30;;;7.95;;
14348;SDS011;7258;50.376;8.742;2023-07-28T06:11:57;8.57;;;7.78;;
14348;SDS011;7258;50.376;8.742;2023-07-28T06:13:59;9.13;;;7.65;;
14348;SDS011;7258;50.376;8.742;2023-07-28T06:16:01;7.47;;;6.78;;
14348;SDS011;7258;50.376;8.742;2023-07-28T06:18:04;8.02;;;7.28;;
14348;SDS011;7258;50.376;8.742;2023-07-28T06:20:08;8.55;;;7.60;;
14348;SDS011;7258;50.376;8.742;2023-07-28T06:22:13;8.77;;;6.75;;
14348;SDS011;7258;50.376;8.742;2023-07-28T06:24:16;7.07;;;6.35;;
14348;SDS011;7258;50.376;8.742;2023-07-28T06:26:19;7.60;;;6.03;;
14348;SDS011;7258;50.376;8.742;2023-07-28T06:28:22;7.22;;;6.50;;
14348;SDS011;7258;50.376;8.742;2023-07-28T06:30:25;6.70;;;6.10;;
14348;SDS011;7258;50.376;8.742;2023-07-28T06:32:28;10.10;;;6.38;;
14348;SDS011;7258;50.376;8.742;2023-07-28T06:34:30;6.10;;;5.60;;
14348;SDS011;7258;50.376;8.742;2023-07-28T06:36:33;6.20;;;4.85;;
14348;SDS011;7258;50.376;8.742;2023-07-28T06:38:37;6.18;;;4.75;;
14348;SDS011;7258;50.376;8.742;2023-07-28T06:40:40;5.70;;;5.15;;
14348;SDS011;7258;50.376;8.742;2023-07-28T06:42:43;4.88;;;4.47;;
14348;SDS011;7258;50.376;8.742;2023-07-28T06:44:46;4.90;;;4.43;;
14348;SDS011;7258;50.376;8.742;2023-07-28T06:46:49;5.28;;;4.65;;
14348;SDS011;7258;50.376;8.742;2023-07-28T06:48:52;5.20;;;4.10;;
14348;SDS011;7258;50.376;8.742;2023-07-28T06:50:55;3.60;;;3.30;;
14348;SDS011;7258;50.376;8.742;2023-07-28T06:52:58;4.13;;;3.72;;
14348;SDS011;7258;50.376;8.742;2023-07-28T06:55:02;3.85;;;3.47;;
14348;SDS011;7258;50.376;8.742;2023-07-28T06:57:06;3.60;;;3.30;;
14348;SDS011;7258;50.376;8.742;2023-07-28T06:59:11;4.82;;;3.60;;
14348;SDS011;7258;50.376;8.742;2023-07-28T07:01:20;4.60;;;3.10;;
14348;SDS011;7258;50.376;8.742;2023-07-28T07:03:23;4.97;;;3.47;;
14348;SDS011;7258;50.376;8.742;2023-07-28T07:05:26;3.80;;;2.97;;
14348;SDS011;7258;50.376;8.742;2023-07-28T07:07:29;4.97;;;3.17;;
14348;SDS011;7258;50.376;8.742;2023-07-28T07:09:33;3.50;;;3.20;;
14348;SDS011;7258;50.376;8.742;2023-07-28T07:11:39;2.70;;;2.50;;
14348;SDS011;7258;50.376;8.742;2023-07-28T07:13:42;5.55;;;2.90;;
14348;SDS011;7258;50.376;8.742;2023-07-28T07:15:45;3.95;;;2.67;;
14348;SDS011;7258;50.376;8.742;2023-07-28T07:17:48;3.72;;;2.45;;
14348;SDS011;7258;50.376;8.742;2023-07-28T07:19:51;4.13;;;2.50;;
14348;SDS011;7258;50.376;8.742;2023-07-28T07:21:54;5.38;;;2.25;;
14348;SDS011;7258;50.376;8.742;2023-07-28T07:23:57;3.05;;;2.50;;
14348;SDS011;7258;50.376;8.742;2023-07-28T07:26:00;3.08;;;2.72;;
14348;SDS011;7258;50.376;8.742;2023-07-28T07:28:05;4.38;;;2.70;;
14348;SDS011;7258;50.376;8.742;2023-07-28T07:30:08;4.10;;;3.05;;
14348;SDS011;7258;50.376;8.742;2023-07-28T07:32:10;3.70;;;2.95;;
14348;SDS011;7258;50.376;8.742;2023-07-28T07:34:13;5.43;;;2.92;;
14348;SDS011;7258;50.376;8.742;2023-07-28T07:36:17;3.22;;;2.90;;
14348;SDS011;7258;50.376;8.742;2023-07-28T07:38:21;3.40;;;3.10;;
14348;SDS011;7258;50.376;8.742;2023-07-28T07:40:26;4.13;;;3.38;;
14348;SDS011;7258;50.376;8.742;2023-07-28T07:42:40;3.70;;;3.40;;
14348;SDS011;7258;50.376;8.742;2023-07-28T07:44:45;3.45;;;3.15;;
14348;SDS011;7258;50.376;8.742;2023-07-28T07:46:48;3.53;;;3.10;;
14348;SDS011;7258;50.376;8.742;2023-07-28T07:48:52;6.32;;;3.38;;
14348;SDS011;7258;50.376;8.742;2023-07-28T07:50:55;4.38;;;2.85;;
14348;SDS011;7258;50.376;8.742;2023-07-28T07:52:59;6.07;;;3.20;;
14348;SDS011;7258;50.376;8.742;2023-07-28T07:55:05;2.83;;;2.50;;
14348;SDS011;7258;50.376;8.742;2023-07-28T07:57:14;5.85;;;2.35;;
14348;SDS011;7258;50.376;8.742;2023-07-28T07:59:16;4.45;;;2.10;;
14348;SDS011;7258;50.376;8.742;2023-07-28T08:01:21;1.85;;;1.70;;
14348;SDS011;7258;50.376;8.742;2023-07-28T08:03:24;3.05;;;2.00;;
14348;SDS011;7258;50.376;8.742;2023-07-28T08:05:28;2.92;;;1.85;;
14348;SDS011;7258;50.376;8.742;2023-07-28T08:07:30;2.78;;;1.80;;
14348;SDS011;7258;50.376;8.742;2023-07-28T08:09:33;2.05;;;1.58;;
14348;SDS011;7258;50.376;8.742;2023-07-28T08:11:36;1.92;;;1.60;;
14348;SDS011;7258;50.376;8.742;2023-07-28T08:13:40;2.60;;;1.00;;
14348;SDS011;7258;50.376;8.742;2023-07-28T08:15:45;3.15;;;0.80;;
14348;SDS011;7258;50.376;8.742;2023-07-28T08:17:50;1.52;;;1.33;;
14348;SDS011;7258;50.376;8.742;2023-07-28T08:19:55;4.35;;;1.65;;
14348;SDS011;7258;50.376;8.742;2023-07-28T08:21:58;2.97;;;1.70;;
14348;SDS011;7258;50.376;8.742;2023-07-28T08:24:01;1.83;;;1.70;;
14348;SDS011;7258;50.376;8.742;2023-07-28T08:26:05;2.45;;;1.80;;
14348;SDS011;7258;50.376;8.742;2023-07-28T08:28:09;4.75;;;1.70;;
14348;SDS011;7258;50.376;8.742;2023-07-28T08:30:18;4.47;;;1.85;;
14348;SDS011;7258;50.376;8.742;2023-07-28T08:32:25;3.30;;;1.65;;
14348;SDS011;7258;50.376;8.742;2023-07-28T08:34:31;1.80;;;1.70;;
14348;SDS011;7258;50.376;8.742;2023-07-28T08:36:34;3.67;;;1.70;;
14348;SDS011;7258;50.376;8.742;2023-07-28T08:38:37;5.20;;;1.80;;
14348;SDS011;7258;50.376;8.742;2023-07-28T08:40:43;2.17;;;1.67;;
14348;SDS011;7258;50.376;8.742;2023-07-28T08:42:49;1.88;;;1.67;;
14348;SDS011;7258;50.376;8.742;2023-07-28T08:44:53;2.38;;;1.35;;
14348;SDS011;7258;50.376;8.742;2023-07-28T08:46:59;1.77;;;1.50;;
14348;SDS011;7258;50.376;8.742;2023-07-28T08:49:05;3.65;;;1.50;;
14348;SDS011;7258;50.376;8.742;2023-07-28T08:51:19;3.25;;;1.30;;
14348;SDS011;7258;50.376;8.742;2023-07-28T08:53:25;1.48;;;1.33;;
14348;SDS011;7258;50.376;8.742;2023-07-28T08:55:28;3.33;;;1.50;;
14348;SDS011;7258;50.376;8.742;2023-07-28T08:57:36;2.28;;;1.25;;
14348;SDS011;7258;50.376;8.742;2023-07-28T08:59:39;1.30;;;1.20;;
14348;SDS011;7258;50.376;8.742;2023-07-28T09:01:49;2.97;;;0.90;;
14348;SDS011;7258;50.376;8.742;2023-07-28T09:03:57;1.40;;;0.73;;
14348;SDS011;7258;50.376;8.742;2023-07-28T09:06:01;0.70;;;0.57;;
14348;SDS011;7258;50.376;8.742;2023-07-28T09:08:07;1.23;;;1.05;;
14348;SDS011;7258;50.376;8.742;2023-07-28T09:10:11;2.78;;;1.00;;
14348;SDS011;7258;50.376;8.742;2023-07-28T09:12:16;1.25;;;0.80;;
14348;SDS011;7258;50.376;8.742;2023-07-28T09:14:21;0.80;;;0.80;;
14348;SDS011;7258;50.376;8.742;2023-07-28T09:16:28;0.80;;;0.63;;
14348;SDS011;7258;50.376;8.742;2023-07-28T09:18:38;1.23;;;0.73;;
14348;SDS011;7258;50.376;8.742;2023-07-28T09:20:41;3.03;;;0.82;;
14348;SDS011;7258;50.376;8.742;2023-07-28T09:22:43;0.75;;;0.47;;
14348;SDS011;7258;50.376;8.742;2023-07-28T09:24:50;2.83;;;0.52;;
14348;SDS011;7258;50.376;8.742;2023-07-28T09:26:57;0.30;;;0.30;;
14348;SDS011;7258;50.376;8.742;2023-07-28T09:29:01;0.57;;;0.40;;
14348;SDS011;7258;50.376;8.742;2023-07-28T09:31:11;0.95;;;0.32;;
14348;SDS011;7258;50.376;8.742;2023-07-28T09:33:28;2.10;;;0.40;;
14348;SDS011;7258;50.376;8.742;2023-07-28T09:35:54;0.10;;;0.10;;
14348;SDS011;7258;50.376;8.742;2023-07-28T09:38:11;0.52;;;0.32;;
14348;SDS011;7258;50.376;8.742;2023-07-28T09:40:26;0.70;;;0.40;;
14348;SDS011;7258;50.376;8.742;2023-07-28T09:42:37;1.75;;;0.30;;
14348;SDS011;7258;50.376;8.742;2023-07-28T09:44:45;0.52;;;0.28;;
14348;SDS011;7258;50.376;8.742;2023-07-28T09:47:37;2.05;;;0.30;;
14348;SDS011;7258;50.376;8.742;2023-07-28T09:50:00;3.03;;;0.40;;
14348;SDS011;7258;50.376;8.742;2023-07-28T09:52:42;0.20;;;0.20;;
14348;SDS011;7258;50.376;8.742;2023-07-28T09:54:51;0.30;;;0.30;;
14348;SDS011;7258;50.376;8.742;2023-07-28T09:57:12;2.17;;;0.47;;
14348;SDS011;7258;50.376;8.742;2023-07-28T09:59:21;0.30;;;0.30;;
14348;SDS011;7258;50.376;8.742;2023-07-28T10:01:32;1.10;;;0.30;;
14348;SDS011;7258;50.376;8.742;2023-07-28T10:03:49;2.65;;;0.40;;
14348;SDS011;7258;50.376;8.742;2023-07-28T10:06:36;0.43;;;0.40;;
14348;SDS011;7258;50.376;8.742;2023-07-28T10:09:08;0.30;;;0.30;;
14348;SDS011;7258;50.376;8.742;2023-07-28T10:11:21;0.52;;;0.40;;
14348;SDS011;7258;50.376;8.742;2023-07-28T10:13:35;0.35;;;0.35;;
14348;SDS011;7258;50.376;8.742;2023-07-28T10:15:49;2.50;;;0.52;;
14348;SDS011;7258;50.376;8.742;2023-07-28T10:18:00;0.63;;;0.38;;
14348;SDS011;7258;50.376;8.742;2023-07-28T10:20:04;0.43;;;0.30;;
14348;SDS011;7258;50.376;8.742;2023-07-28T10:22:13;1.98;;;0.40;;
14348;SDS011;7258;50.376;8.742;2023-07-28T10:24:16;1.38;;;0.50;;
14348;SDS011;7258;50.376;8.742;2023-07-28T10:26:23;0.52;;;0.30;;
14348;SDS011;7258;50.376;8.742;2023-07-28T10:28:36;0.50;;;0.50;;
14348;SDS011;7258;50.376;8.742;2023-07-28T10:30:50;1.00;;;0.40;;
14348;SDS011;7258;50.376;8.742;2023-07-28T10:32:54;0.68;;;0.40;;
14348;SDS011;7258;50.376;8.742;2023-07-28T10:35:00;2.15;;;0.40;;
14348;SDS011;7258;50.376;8.742;2023-07-28T10:37:07;2.58;;;0.52;;
14348;SDS011;7258;50.376;8.742;2023-07-28T10:39:12;0.75;;;0.30;;
14348;SDS011;7258;50.376;8.742;2023-07-28T10:41:18;0.20;;;0.20;;
14348;SDS011;7258;50.376;8.742;2023-07-28T10:43:21;0.70;;;0.32;;
14348;SDS011;7258;50.376;8.742;2023-07-28T10:45:25;1.55;;;0.40;;
14348;SDS011;7258;50.376;8.742;2023-07-28T10:47:29;0.57;;;0.30;;
14348;SDS011;7258;50.376;8.742;2023-07-28T10:49:33;0.35;;;0.35;;
14348;SDS011;7258;50.376;8.742;2023-07-28T10:51:36;0.20;;;0.20;;
14348;SDS011;7258;50.376;8.742;2023-07-28T10:53:41;0.45;;;0.20;;
14348;SDS011;7258;50.376;8.742;2023-07-28T10:55:44;0.63;;;0.30;;
14348;SDS011;7258;50.376;8.742;2023-07-28T10:57:48;1.33;;;0.40;;
14348;SDS011;7258;50.376;8.742;2023-07-28T10:59:52;0.77;;;0.30;;
14348;SDS011;7258;50.376;8.742;2023-07-28T11:01:57;0.20;;;0.20;;
14348;SDS011;7258;50.376;8.742;2023-07-28T11:04:05;1.98;;;0.30;;
14348;SDS011;7258;50.376;8.742;2023-07-28T11:06:10;0.50;;;0.30;;
14348;SDS011;7258;50.376;8.742;2023-07-28T11:08:13;1.48;;;0.30;;
14348;SDS011;7258;50.376;8.742;2023-07-28T11:10:16;0.70;;;0.30;;
14348;SDS011;7258;50.376;8.742;2023-07-28T11:12:21;0.30;;;0.30;;
14348;SDS011;7258;50.376;8.742;2023-07-28T11:14:25;0.65;;;0.30;;
14348;SDS011;7258;50.376;8.742;2023-07-28T11:16:28;2.03;;;0.40;;
14348;SDS011;7258;50.376;8.742;2023-07-28T11:18:33;0.32;;;0.32;;
14348;SDS011;7258;50.376;8.742;2023-07-28T11:20:36;0.75;;;0.45;;
14348;SDS011;7258;50.376;8.742;2023-07-28T11:22:39;0.30;;;0.30;;
14348;SDS011;7258;50.376;8.742;2023-07-28T11:24:42;0.70;;;0.30;;
14348;SDS011;7258;50.376;8.742;2023-07-28T11:26:46;0.90;;;0.47;;
14348;SDS011;7258;50.376;8.742;2023-07-28T11:28:49;1.77;;;0.22;;
14348;SDS011;7258;50.376;8.742;2023-07-28T11:30:55;0.28;;;0.25;;
14348;SDS011;7258;50.376;8.742;2023-07-28T11:32:58;0.30;;;0.30;;
14348;SDS011;7258;50.376;8.742;2023-07-28T11:35:04;0.40;;;0.40;;
14348;SDS011;7258;50.376;8.742;2023-07-28T11:37:07;0.22;;;0.22;;
14348;SDS011;7258;50.376;8.742;2023-07-28T11:39:10;0.30;;;0.30;;
14348;SDS011;7258;50.376;8.742;2023-07-28T11:41:15;0.60;;;0.30;;
14348;SDS011;7258;50.376;8.742;2023-07-28T11:43:21;1.35;;;0.50;;
14348;SDS011;7258;50.376;8.742;2023-07-28T11:45:24;0.40;;;0.38;;
14348;SDS011;7258;50.376;8.742;2023-07-28T11:47:28;2.00;;;0.43;;
14348;SDS011;7258;50.376;8.742;2023-07-28T11:49:31;0.30;;;0.30;;
14348;SDS011;7258;50.376;8.742;2023-07-28T11:51:38;0.30;;;0.30;;
14348;SDS011;7258;50.376;8.742;2023-07-28T11:53:44;1.35;;;0.32;;
14348;SDS011;7258;50.376;8.742;2023-07-28T11:55:47;2.75;;;0.38;;
14348;SDS011;7258;50.376;8.742;2023-07-28T11:57:50;1.25;;;0.60;;
14348;SDS011;7258;50.376;8.742;2023-07-28T11:59:54;0.85;;;0.73;;
14348;SDS011;7258;50.376;8.742;2023-07-28T12:01:57;4.80;;;0.55;;
14348;SDS011;7258;50.376;8.742;2023-07-28T12:04:18;1.25;;;0.80;;
14348;SDS011;7258;50.376;8.742;2023-07-28T12:06:24;0.68;;;0.68;;
14348;SDS011;7258;50.376;8.742;2023-07-28T12:08:34;0.70;;;0.60;;
14348;SDS011;7258;50.376;8.742;2023-07-28T12:10:49;0.32;;;0.22;;
14348;SDS011;7258;50.376;8.742;2023-07-28T12:13:03;0.43;;;0.43;;
14348;SDS011;7258;50.376;8.742;2023-07-28T12:15:19;1.85;;;0.60;;
14348;SDS011;7258;50.376;8.742;2023-07-28T12:17:26;0.30;;;0.30;;
14348;SDS011;7258;50.376;8.742;2023-07-28T12:19:57;0.40;;;0.40;;
14348;SDS011;7258;50.376;8.742;2023-07-28T12:22:01;0.43;;;0.40;;
14348;SDS011;7258;50.376;8.742;2023-07-28T12:24:05;0.80;;;0.50;;
14348;SDS011;7258;50.376;8.742;2023-07-28T12:26:09;0.50;;;0.50;;
14348;SDS011;7258;50.376;8.742;2023-07-28T12:28:12;0.47;;;0.47;;
14348;SDS011;7258;50.376;8.742;2023-07-28T12:30:18;0.43;;;0.40;;
14348;SDS011;7258;50.376;8.742;2023-07-28T12:32:20;0.52;;;0.43;;
14348;SDS011;7258;50.376;8.742;2023-07-28T12:34:36;0.40;;;0.40;;
14348;SDS011;7258;50.376;8.742;2023-07-28T12:36:42;0.65;;;0.50;;
14348;SDS011;7258;50.376;8.742;2023-07-28T12:38:48;1.00;;;0.43;;
14348;SDS011;7258;50.376;8.742;2023-07-28T12:40:56;0.40;;;0.40;;
14348;SDS011;7258;50.376;8.742;2023-07-28T12:43:02;0.50;;;0.50;;
14348;SDS011;7258;50.376;8.742;2023-07-28T12:45:07;0.32;;;0.32;;
14348;SDS011;7258;50.376;8.742;2023-07-28T12:47:15;2.38;;;0.55;;
14348;SDS011;7258;50.376;8.742;2023-07-28T12:49:20;0.40;;;0.40;;
14348;SDS011;7258;50.376;8.742;2023-07-28T12:51:23;0.40;;;0.40;;
14348;SDS011;7258;50.376;8.742;2023-07-28T12:53:29;0.73;;;0.68;;
14348;SDS011;7258;50.376;8.742;2023-07-28T12:55:32;1.13;;;0.70;;
14348;SDS011;7258;50.376;8.742;2023-07-28T12:57:37;1.00;;;0.60;;
14348;SDS011;7258;50.376;8.742;2023-07-28T12:59:40;1.33;;;0.63;;
14348;SDS011;7258;50.376;8.742;2023-07-28T13:01:47;1.40;;;0.70;;
14348;SDS011;7258;50.376;8.742;2023-07-28T13:03:50;1.02;;;0.77;;
14348;SDS011;7258;50.376;8.742;2023-07-28T13:05:53;1.83;;;0.80;;
14348;SDS011;7258;50.376;8.742;2023-07-28T13:07:56;3.40;;;0.90;;
14348;SDS011;7258;50.376;8.742;2023-07-28T13:10:03;1.23;;;0.68;;
14348;SDS011;7258;50.376;8.742;2023-07-28T13:12:10;1.27;;;0.75;;
14348;SDS011;7258;50.376;8.742;2023-07-28T13:14:18;1.13;;;0.90;;
14348;SDS011;7258;50.376;8.742;2023-07-28T13:16:21;0.68;;;0.65;;
14348;SDS011;7258;50.376;8.742;2023-07-28T13:18:24;0.80;;;0.80;;
14348;SDS011;7258;50.376;8.742;2023-07-28T13:20:27;1.50;;;1.05;;
14348;SDS011;7258;50.376;8.742;2023-07-28T13:22:30;1.50;;;0.88;;
14348;SDS011;7258;50.376;8.742;2023-07-28T13:24:34;0.80;;;0.80;;
14348;SDS011;7258;50.376;8.742;2023-07-28T13:26:36;1.00;;;1.00;;
14348;SDS011;7258;50.376;8.742;2023-07-28T13:28:39;1.27;;;0.82;;